createdAt,value
2023-04-20T00:01:11.071Z,3.78
2023-04-20T00:03:23.756Z,3.75
2023-04-20T00:05:29.095Z,3.90
2023-04-20T00:07:39.198Z,3.60
2023-04-20T00:09:46.881Z,3.63
2023-04-20T00:12:00.933Z,4.05
2023-04-20T00:14:06.594Z,4.03
2023-04-20T00:16:17.538Z,4.07
2023-04-20T00:18:26.265Z,3.83
2023-04-20T00:20:32.636Z,3.60
2023-04-20T00:22:39.974Z,3.60
2023-04-20T00:24:51.144Z,3.87
2023-04-20T00:26:56.657Z,3.97
2023-04-20T00:29:06.064Z,4.03
2023-04-20T00:31:11.511Z,3.60
2023-04-20T00:33:17.221Z,3.55
2023-04-20T00:35:27.631Z,3.88
2023-04-20T00:37:32.667Z,3.67
2023-04-20T00:39:41.811Z,4.20
2023-04-20T00:41:54.128Z,4.53
2023-04-20T00:44:02.078Z,3.90
2023-04-20T00:46:11.986Z,3.92
2023-04-20T00:48:17.909Z,4.13
2023-04-20T00:50:24.249Z,4.00
2023-04-20T00:52:30.327Z,4.28
2023-04-20T00:54:37.056Z,4.32
2023-04-20T00:56:47.734Z,4.60
2023-04-20T00:58:57.654Z,4.20
2023-04-20T01:01:05.051Z,4.40
2023-04-20T01:03:13.826Z,4.45
2023-04-20T01:05:19.426Z,3.95
2023-04-20T01:07:24.585Z,4.65
2023-04-20T01:09:33.465Z,4.75
2023-04-20T01:11:39.177Z,4.88
2023-04-20T01:13:46.793Z,4.70
2023-04-20T01:16:04.331Z,5.47
2023-04-20T01:18:10.028Z,4.72
2023-04-20T01:20:20.560Z,5.40
2023-04-20T01:22:30.024Z,5.72
2023-04-20T01:24:35.058Z,5.40
2023-04-20T01:26:40.076Z,5.43
2023-04-20T01:28:46.098Z,5.47
2023-04-20T01:33:04.394Z,5.60
2023-04-20T01:35:13.256Z,5.97
2023-04-20T01:37:20.410Z,5.05
2023-04-20T01:39:28.565Z,5.47
2023-04-20T01:41:39.646Z,5.65
2023-04-20T01:43:45.542Z,5.50
2023-04-20T01:45:48.073Z,6.25
2023-04-20T01:47:53.137Z,5.35
2023-04-20T01:49:58.802Z,5.93
2023-04-20T01:52:06.181Z,5.55
2023-04-20T01:54:13.468Z,6.07
2023-04-20T01:56:21.494Z,5.70
2023-04-20T01:58:27.891Z,5.72
2023-04-20T02:00:33.270Z,5.63
2023-04-20T02:02:47.363Z,5.72
2023-04-20T02:04:56.530Z,5.75
2023-04-20T02:07:03.338Z,5.43
2023-04-20T02:09:13.933Z,6.05
2023-04-20T02:11:26.114Z,6.20
2023-04-20T02:13:38.272Z,6.82
2023-04-20T02:15:49.537Z,6.15
2023-04-20T02:17:55.846Z,5.72
2023-04-20T02:20:01.414Z,6.25
2023-04-20T02:22:07.148Z,7.18
2023-04-20T02:24:12.239Z,5.93
2023-04-20T02:26:17.359Z,6.25
2023-04-20T02:28:56.873Z,7.55
2023-04-20T02:31:02.474Z,6.03
2023-04-20T02:33:07.731Z,6.90
2023-04-20T02:35:14.713Z,6.60
2023-04-20T02:37:22.770Z,6.78
2023-04-20T02:39:30.181Z,7.18
2023-04-20T02:42:05.528Z,7.15
2023-04-20T02:44:42.166Z,6.93
2023-04-20T02:46:48.851Z,7.03
2023-04-20T02:48:55.640Z,6.93
2023-04-20T02:51:02.552Z,7.47
2023-04-20T02:53:12.780Z,7.68
2023-04-20T02:55:24.008Z,7.30
2023-04-20T02:57:34.541Z,7.35
2023-04-20T02:59:43.706Z,8.10
2023-04-20T03:02:02.217Z,8.70
2023-04-20T03:04:10.526Z,7.63
2023-04-20T03:06:22.600Z,8.23
2023-04-20T03:08:35.964Z,8.15
2023-04-20T03:11:06.325Z,8.30
2023-04-20T03:13:13.437Z,8.25
2023-04-20T03:15:34.707Z,8.10
2023-04-20T03:18:02.006Z,7.93
2023-04-20T03:20:11.649Z,7.75
2023-04-20T03:22:19.389Z,6.88
2023-04-20T03:24:33.124Z,6.47
2023-04-20T03:26:41.984Z,7.07
2023-04-20T03:29:17.207Z,6.93
2023-04-20T03:31:45.193Z,7.30
2023-04-20T03:33:51.018Z,6.82
2023-04-20T03:35:56.818Z,7.25
2023-04-20T03:38:03.221Z,6.85
2023-04-20T03:40:14.402Z,7.15
2023-04-20T03:42:27.982Z,6.97
2023-04-20T03:44:34.560Z,7.13
2023-04-20T03:46:47.018Z,6.95
2023-04-20T03:48:54.364Z,7.78
2023-04-20T03:50:59.721Z,7.63
2023-04-20T03:53:12.238Z,6.90
2023-04-20T03:55:17.633Z,7.25
2023-04-20T03:57:30.253Z,7.18
2023-04-20T03:59:36.029Z,7.13
2023-04-20T04:01:54.976Z,6.88
2023-04-20T04:04:01.999Z,6.82
2023-04-20T04:06:17.874Z,6.53
2023-04-20T04:08:23.425Z,6.82
2023-04-20T04:10:29.270Z,6.38
2023-04-20T04:12:59.038Z,6.13
2023-04-20T04:15:06.585Z,6.63
2023-04-20T04:17:22.502Z,5.68
2023-04-20T04:19:30.068Z,6.30
2023-04-20T04:21:42.552Z,5.93
2023-04-20T04:23:48.306Z,6.32
2023-04-20T04:26:06.734Z,5.78
2023-04-20T04:28:17.022Z,6.32
2023-04-20T04:30:33.292Z,5.80
2023-04-20T04:32:55.341Z,6.15
2023-04-20T04:35:01.616Z,6.07
2023-04-20T04:37:07.020Z,6.53
2023-04-20T04:39:33.708Z,5.93
2023-04-20T04:41:50.003Z,5.72
2023-04-20T04:44:06.088Z,6.07
2023-04-20T04:46:15.077Z,6.63
2023-04-20T04:48:23.316Z,5.88
2023-04-20T04:50:29.105Z,6.00
2023-04-20T04:52:51.188Z,5.90
2023-04-20T04:54:56.497Z,5.10
2023-04-20T04:57:03.970Z,5.57
2023-04-20T04:59:11.270Z,5.45
2023-04-20T05:01:34.234Z,5.93
2023-04-20T05:03:42.043Z,5.60
2023-04-20T05:07:53.157Z,5.15
2023-04-20T05:09:58.202Z,4.88
2023-04-20T05:12:05.521Z,5.40
2023-04-20T05:14:10.838Z,5.47
2023-04-20T05:16:16.368Z,4.85
2023-04-20T05:18:22.301Z,5.40
2023-04-20T05:20:45.432Z,5.30
2023-04-20T05:22:59.572Z,4.45
2023-04-20T05:25:06.014Z,5.00
2023-04-20T05:27:11.486Z,4.97
2023-04-20T05:29:19.197Z,4.63
2023-04-20T05:31:40.502Z,5.15
2023-04-20T05:33:46.110Z,4.80
2023-04-20T05:35:58.182Z,4.60
2023-04-20T05:38:06.409Z,4.63
2023-04-20T05:40:13.360Z,4.32
2023-04-20T05:42:18.907Z,4.82
2023-04-20T05:44:26.759Z,4.60
2023-04-20T05:46:31.874Z,4.97
2023-04-20T05:48:59.761Z,4.43
2023-04-20T05:51:08.976Z,4.85
2023-04-20T05:53:14.614Z,4.30
2023-04-20T05:55:22.512Z,4.32
2023-04-20T05:57:30.942Z,4.57
2023-04-20T05:59:37.616Z,4.40
2023-04-20T06:01:43.254Z,4.25
2023-04-20T06:03:59.254Z,4.40
2023-04-20T06:06:07.806Z,4.22
2023-04-20T06:08:19.966Z,4.32
2023-04-20T06:10:26.390Z,3.92
2023-04-20T06:12:38.286Z,3.97
2023-04-20T06:14:43.303Z,4.63
2023-04-20T06:16:48.304Z,4.60
2023-04-20T06:18:53.792Z,4.10
2023-04-20T06:21:00.069Z,3.97
2023-04-20T06:23:23.207Z,4.57
2023-04-20T06:25:28.482Z,3.53
2023-04-20T06:27:35.920Z,3.70
2023-04-20T06:29:42.274Z,3.65
2023-04-20T06:31:47.478Z,3.70
2023-04-20T06:33:54.574Z,3.92
2023-04-20T06:36:12.547Z,3.83
2023-04-20T06:38:17.778Z,3.47
2023-04-20T06:40:25.808Z,4.47
2023-04-20T06:42:41.286Z,3.60
2023-04-20T06:44:46.467Z,3.67
2023-04-20T06:46:52.704Z,3.90
2023-04-20T06:48:59.620Z,4.22
2023-04-20T06:51:04.728Z,4.70
2023-04-20T06:53:09.753Z,4.05
2023-04-20T06:55:38.134Z,4.65
2023-04-20T06:57:44.028Z,4.53
2023-04-20T06:59:49.089Z,4.50
2023-04-20T07:01:54.917Z,5.20
2023-04-20T07:04:00.284Z,5.00
2023-04-20T07:06:17.132Z,4.90
2023-04-20T07:08:23.023Z,4.97
2023-04-20T07:10:30.662Z,5.20
2023-04-20T07:12:45.303Z,6.15
2023-04-20T07:14:51.190Z,4.82
2023-04-20T07:16:56.833Z,4.85
2023-04-20T07:19:01.879Z,5.25
2023-04-20T07:21:09.318Z,5.55
2023-04-20T07:23:17.043Z,6.50
2023-04-20T07:25:38.510Z,6.00
2023-04-20T07:27:46.395Z,5.90
2023-04-20T07:29:51.866Z,5.95
2023-04-20T07:31:56.910Z,6.68
2023-04-20T07:34:01.995Z,8.32
2023-04-20T07:36:12.579Z,7.75
2023-04-20T07:38:20.193Z,7.82
2023-04-20T07:40:31.729Z,7.85
2023-04-20T07:42:42.405Z,7.35
2023-04-20T07:44:51.380Z,7.72
2023-04-20T07:46:57.783Z,7.90
2023-04-20T07:49:02.923Z,7.82
2023-04-20T07:51:10.580Z,6.88
2023-04-20T07:53:15.710Z,7.70
2023-04-20T07:55:37.089Z,7.90
2023-04-20T07:57:42.765Z,7.80
2023-04-20T07:59:54.033Z,7.93
2023-04-20T08:02:07.267Z,8.07
2023-04-20T08:04:12.694Z,7.13
2023-04-20T08:06:18.017Z,7.18
2023-04-20T08:08:24.062Z,7.32
2023-04-20T08:10:29.423Z,6.95
2023-04-20T08:12:53.673Z,7.68
2023-04-20T08:15:06.552Z,7.68
2023-04-20T08:17:11.669Z,7.32
2023-04-20T08:19:18.121Z,7.25
2023-04-20T08:21:29.386Z,7.00
2023-04-20T08:23:34.448Z,7.03
2023-04-20T08:25:42.776Z,6.47
2023-04-20T08:27:47.800Z,6.82
2023-04-20T08:29:55.981Z,6.03
2023-04-20T08:32:04.934Z,6.03
2023-04-20T08:34:10.001Z,5.50
2023-04-20T08:36:25.224Z,5.35
2023-04-20T08:38:34.307Z,6.07
2023-04-20T08:40:40.321Z,5.13
2023-04-20T08:42:51.318Z,5.00
2023-04-20T08:45:04.256Z,4.45
2023-04-20T08:47:13.895Z,4.72
2023-04-20T08:49:21.231Z,4.70
2023-04-20T08:51:46.419Z,5.30
2023-04-20T08:53:56.277Z,5.03
2023-04-20T08:56:06.900Z,5.28
2023-04-20T08:58:16.029Z,4.72
2023-04-20T09:00:24.557Z,5.55
2023-04-20T09:02:35.690Z,5.32
2023-04-20T09:04:42.360Z,4.63
2023-04-20T09:06:50.348Z,4.78
2023-04-20T09:08:58.633Z,4.63
2023-04-20T09:11:04.051Z,4.82
2023-04-20T09:13:09.616Z,4.88
2023-04-20T09:15:26.641Z,4.68
2023-04-20T09:17:41.027Z,5.22
2023-04-20T09:19:57.077Z,4.75
2023-04-20T09:22:05.407Z,4.93
2023-04-20T09:24:11.768Z,4.47
2023-04-20T09:26:23.540Z,4.13
2023-04-20T09:28:39.547Z,4.00
2023-04-20T09:30:48.199Z,4.72
2023-04-20T09:33:12.618Z,4.68
2023-04-20T09:35:29.118Z,4.28
2023-04-20T09:37:34.151Z,4.72
2023-04-20T09:39:46.067Z,4.45
2023-04-20T09:41:57.301Z,4.63
2023-04-20T09:44:03.615Z,5.13
2023-04-20T09:46:10.695Z,4.50
2023-04-20T09:48:21.061Z,4.32
2023-04-20T09:50:38.173Z,4.43
2023-04-20T09:52:54.177Z,4.32
2023-04-20T09:55:01.027Z,4.45
2023-04-20T09:57:07.153Z,4.65
2023-04-20T09:59:12.260Z,4.05
2023-04-20T10:01:18.539Z,4.30
2023-04-20T10:03:26.470Z,3.92
2023-04-20T10:05:39.847Z,4.47
2023-04-20T10:07:45.042Z,5.70
2023-04-20T10:09:51.244Z,4.90
2023-04-20T10:11:59.098Z,4.20
2023-04-20T10:14:20.848Z,4.50
2023-04-20T10:16:26.644Z,4.78
2023-04-20T10:18:34.812Z,4.68
2023-04-20T10:20:42.094Z,4.70
2023-04-20T10:22:50.808Z,4.30
2023-04-20T10:24:56.695Z,4.47
2023-04-20T10:27:04.343Z,4.10
2023-04-20T10:29:11.655Z,4.15
2023-04-20T10:31:22.243Z,3.85
2023-04-20T10:33:27.765Z,4.20
2023-04-20T10:35:50.838Z,4.30
2023-04-20T10:37:55.841Z,4.50
2023-04-20T10:40:01.208Z,4.20
2023-04-20T10:42:06.820Z,4.72
2023-04-20T10:44:12.413Z,3.90
2023-04-20T10:46:23.086Z,4.00
2023-04-20T10:48:30.788Z,4.28
2023-04-20T10:50:38.820Z,4.00
2023-04-20T10:52:48.230Z,4.90
2023-04-20T10:54:53.257Z,4.30
2023-04-20T10:56:59.498Z,4.40
2023-04-20T10:59:12.068Z,4.22
2023-04-20T11:01:19.903Z,4.28
2023-04-20T11:03:25.087Z,4.10
2023-04-20T11:05:31.170Z,4.32
2023-04-20T11:07:56.118Z,4.47
2023-04-20T11:10:02.376Z,4.38
2023-04-20T11:12:12.395Z,4.85
2023-04-20T11:14:17.413Z,4.45
2023-04-20T11:16:36.363Z,4.50
2023-04-20T11:18:56.540Z,4.38
2023-04-20T11:21:03.723Z,4.80
2023-04-20T11:23:11.473Z,4.15
2023-04-20T11:25:16.512Z,4.43
2023-04-20T11:27:24.918Z,4.07
2023-04-20T11:29:38.092Z,4.28
2023-04-20T11:31:43.190Z,4.30
2023-04-20T11:33:48.580Z,4.07
2023-04-20T11:35:54.063Z,4.53
2023-04-20T11:37:59.350Z,4.20
2023-04-20T11:40:10.508Z,3.78
2023-04-20T11:42:21.045Z,3.72
2023-04-20T11:44:26.499Z,3.90
2023-04-20T11:46:32.195Z,4.45
2023-04-20T11:48:37.342Z,4.03
2023-04-20T11:50:43.350Z,4.47
2023-04-20T11:52:53.357Z,4.10
2023-04-20T11:54:58.441Z,4.03
2023-04-20T11:57:06.851Z,4.80
2023-04-20T11:59:17.185Z,4.18
2023-04-20T12:01:22.985Z,4.38
2023-04-20T12:03:28.397Z,3.88
2023-04-20T12:05:33.827Z,4.30
2023-04-20T12:07:39.149Z,4.28
2023-04-20T12:09:46.554Z,4.45
2023-04-20T12:11:54.115Z,4.05
2023-04-20T12:14:01.822Z,4.25
2023-04-20T12:18:13.992Z,4.60
2023-04-20T12:20:19.336Z,4.53
2023-04-20T12:22:26.820Z,4.82
2023-04-20T12:24:35.617Z,5.20
2023-04-20T12:26:43.065Z,3.95
2023-04-20T12:28:48.600Z,3.92
2023-04-20T12:30:56.661Z,4.20
2023-04-20T12:33:01.774Z,4.63
2023-04-20T12:35:08.414Z,4.25
2023-04-20T12:37:14.892Z,5.00
2023-04-20T12:39:20.490Z,4.50
2023-04-20T12:41:33.476Z,4.32
2023-04-20T12:43:41.238Z,3.90
2023-04-20T12:45:46.246Z,4.50
2023-04-20T12:47:55.847Z,4.63
2023-04-20T12:50:03.676Z,4.88
2023-04-20T12:52:08.990Z,5.25
2023-04-20T12:54:14.442Z,4.82
2023-04-20T12:56:43.781Z,4.90
2023-04-20T12:58:52.936Z,5.40
2023-04-20T13:01:00.793Z,5.05
2023-04-20T13:03:08.443Z,5.28
2023-04-20T13:07:19.531Z,5.50
2023-04-20T13:09:33.001Z,6.25
2023-04-20T13:11:42.022Z,5.57
2023-04-20T13:13:47.655Z,5.13
2023-04-20T13:15:53.781Z,5.47
2023-04-20T13:17:59.193Z,5.40
2023-04-20T13:20:09.435Z,5.60
2023-04-20T13:22:18.121Z,5.65
2023-04-20T13:24:24.001Z,5.38
2023-04-20T13:26:31.076Z,4.88
2023-04-20T13:28:37.774Z,5.20
2023-04-20T13:30:42.838Z,5.07
2023-04-20T13:32:47.907Z,5.03
2023-04-20T13:34:55.341Z,5.28
2023-04-20T13:37:03.623Z,5.13
2023-04-20T13:39:11.804Z,5.95
2023-04-20T13:41:18.240Z,5.63
2023-04-20T13:43:23.306Z,6.47
2023-04-20T13:45:28.589Z,5.43
2023-04-20T13:47:37.042Z,5.15
2023-04-20T13:49:43.552Z,5.45
2023-04-20T13:51:48.670Z,5.80
2023-04-20T13:53:56.270Z,5.80
2023-04-20T13:56:01.410Z,6.07
2023-04-20T13:58:07.520Z,6.05
2023-04-20T14:00:13.778Z,8.50
2023-04-20T14:02:22.403Z,9.70
2023-04-20T14:04:27.727Z,7.82
2023-04-20T14:06:33.082Z,9.18
2023-04-20T14:08:39.231Z,7.57
2023-04-20T14:10:47.499Z,7.18
2023-04-20T14:12:55.709Z,6.53
2023-04-20T14:15:05.871Z,8.52
2023-04-20T14:17:11.779Z,8.88
2023-04-20T14:19:20.196Z,10.27
2023-04-20T14:21:27.898Z,7.03
2023-04-20T14:23:34.370Z,8.18
2023-04-20T14:25:39.434Z,6.40
2023-04-20T14:27:47.780Z,7.40
2023-04-20T14:29:54.367Z,8.98
2023-04-20T14:31:59.655Z,7.95
2023-04-20T14:34:09.649Z,8.93
2023-04-20T14:36:14.731Z,8.68
2023-04-20T14:38:20.063Z,7.30
2023-04-20T14:40:30.853Z,7.47
2023-04-20T14:42:38.672Z,7.65
2023-04-20T14:44:51.058Z,7.28
2023-04-20T14:47:00.243Z,7.30
2023-04-20T14:49:06.767Z,7.55
2023-04-20T14:51:11.810Z,7.32
2023-04-20T14:53:16.834Z,7.40
2023-04-20T14:55:26.322Z,7.20
2023-04-20T14:57:34.924Z,9.30
2023-04-20T15:02:01.657Z,8.80
2023-04-20T15:04:08.756Z,7.63
2023-04-20T15:06:14.242Z,7.55
2023-04-20T15:08:19.548Z,8.63
2023-04-20T15:10:25.301Z,8.38
2023-04-20T15:12:37.958Z,9.20
2023-04-20T15:14:43.072Z,8.90
2023-04-20T15:16:52.114Z,9.40
2023-04-20T15:18:57.175Z,9.75
2023-04-20T15:21:02.716Z,9.35
2023-04-20T15:23:10.833Z,9.77
2023-04-20T15:25:18.824Z,10.32
2023-04-20T15:27:24.213Z,10.82
2023-04-20T15:29:30.765Z,10.95
2023-04-20T15:31:47.539Z,11.48
2023-04-20T15:33:55.299Z,12.00
2023-04-20T15:36:00.811Z,11.25
2023-04-20T15:38:06.040Z,11.40
2023-04-20T15:40:14.198Z,11.18
2023-04-20T15:42:19.341Z,11.48
2023-04-20T15:44:24.637Z,11.00
2023-04-20T15:46:31.299Z,11.60
2023-04-20T15:48:37.623Z,11.68
2023-04-20T15:50:45.988Z,10.30
2023-04-20T15:52:53.092Z,11.07
2023-04-20T15:55:01.861Z,11.10
2023-04-20T15:57:11.633Z,11.07
2023-04-20T15:59:16.632Z,10.93
2023-04-20T16:01:24.557Z,10.90
2023-04-20T16:05:37.698Z,10.70
2023-04-20T16:07:45.685Z,11.00
2023-04-20T16:09:50.910Z,10.75
2023-04-20T16:11:56.349Z,10.93
2023-04-20T16:14:06.029Z,10.55
2023-04-20T16:16:11.801Z,10.85
2023-04-20T16:18:18.632Z,10.13
2023-04-20T16:20:23.833Z,10.65
2023-04-20T16:22:29.333Z,11.05
2023-04-20T16:24:36.964Z,10.27
2023-04-20T16:26:42.212Z,9.90
2023-04-20T16:28:49.241Z,10.85
2023-04-20T16:30:54.277Z,10.43
2023-04-20T16:33:00.625Z,9.95
2023-04-20T16:35:06.590Z,10.55
2023-04-20T16:37:11.933Z,10.48
2023-04-20T16:39:18.580Z,10.20
2023-04-20T16:41:35.260Z,10.30
2023-04-20T16:43:41.337Z,10.25
2023-04-20T16:45:46.463Z,10.40
2023-04-20T16:47:51.626Z,10.23
2023-04-20T16:49:56.971Z,12.82
2023-04-20T16:52:22.642Z,10.90
2023-04-20T16:54:27.695Z,9.80
2023-04-20T16:56:36.753Z,11.25
2023-04-20T16:58:42.119Z,11.23
2023-04-20T17:00:47.400Z,11.43
2023-04-20T17:02:55.467Z,10.02
2023-04-20T17:05:03.885Z,10.38
2023-04-20T17:07:09.971Z,9.77
2023-04-20T17:09:15.063Z,11.15
2023-04-20T17:11:38.900Z,10.57
2023-04-20T17:13:44.272Z,10.70
2023-04-20T17:15:49.281Z,10.73
2023-04-20T17:17:54.367Z,9.75
2023-04-20T17:19:59.376Z,10.55
2023-04-20T17:22:05.677Z,9.32
2023-04-20T17:24:12.330Z,9.20
2023-04-20T17:26:21.506Z,9.45
2023-04-20T17:28:29.224Z,8.45
2023-04-20T17:30:35.513Z,10.02
2023-04-20T17:32:45.660Z,9.70
2023-04-20T17:34:51.616Z,9.45
2023-04-20T17:36:56.703Z,9.20
2023-04-20T17:39:01.882Z,10.13
2023-04-20T17:41:07.374Z,11.80
2023-04-20T17:43:17.971Z,11.15
2023-04-20T17:45:26.095Z,9.73
2023-04-20T17:49:41.584Z,10.68
2023-04-20T17:51:48.394Z,10.18
2023-04-20T17:53:53.372Z,10.13
2023-04-20T17:55:58.592Z,10.10
2023-04-20T17:58:05.525Z,10.35
2023-04-20T18:00:13.916Z,10.57
2023-04-20T18:02:24.179Z,10.45
2023-04-20T18:04:29.742Z,11.48
2023-04-20T18:06:34.934Z,11.45
2023-04-20T18:08:39.990Z,12.05
2023-04-20T18:10:45.377Z,11.30
2023-04-20T18:12:53.973Z,10.95
2023-04-20T18:14:59.075Z,12.10
2023-04-20T18:17:05.238Z,11.95
2023-04-20T18:19:13.197Z,12.15
2023-04-20T18:21:21.649Z,12.25
2023-04-20T18:23:26.743Z,14.20
2023-04-20T18:25:31.901Z,14.48
2023-04-20T18:27:36.985Z,13.23
2023-04-20T18:29:42.562Z,12.52
2023-04-20T18:31:50.495Z,13.15
2023-04-20T18:33:55.611Z,12.40
2023-04-20T18:36:05.715Z,12.68
2023-04-20T18:38:10.798Z,13.68
2023-04-20T18:40:16.718Z,12.73
2023-04-20T18:42:25.288Z,13.43
2023-04-20T18:44:33.579Z,17.95
2023-04-20T18:46:42.503Z,16.00
2023-04-20T18:48:53.261Z,13.50
2023-04-20T18:51:01.781Z,13.63
2023-04-20T18:53:11.558Z,14.38
2023-04-20T18:55:17.394Z,16.98
2023-04-20T18:57:26.312Z,14.30
2023-04-20T18:59:31.364Z,15.38
2023-04-20T19:01:41.853Z,14.38
2023-04-20T19:03:48.147Z,14.68
2023-04-20T19:05:53.479Z,15.77
2023-04-20T19:08:00.609Z,15.38
2023-04-20T19:10:10.325Z,15.23
2023-04-20T19:12:17.554Z,16.45
2023-04-20T19:14:22.625Z,15.90
2023-04-20T19:16:29.571Z,15.90
2023-04-20T19:18:34.624Z,16.63
2023-04-20T19:20:39.742Z,16.58
2023-04-20T19:22:48.505Z,16.42
2023-04-20T19:24:57.862Z,16.92
2023-04-20T19:27:07.641Z,17.75
2023-04-20T19:29:14.945Z,17.55
2023-04-20T19:31:21.674Z,17.65
2023-04-20T19:33:26.733Z,17.88
2023-04-20T19:35:31.877Z,16.48
2023-04-20T19:37:38.240Z,19.50
2023-04-20T19:39:44.435Z,16.67
2023-04-20T19:41:50.272Z,16.60
2023-04-20T19:44:16.572Z,17.23
2023-04-20T19:46:22.056Z,18.87
2023-04-20T19:48:33.127Z,18.73
2023-04-20T19:50:38.417Z,18.70
2023-04-20T19:52:51.329Z,19.73
2023-04-20T19:54:56.316Z,21.85
2023-04-20T19:57:01.902Z,18.38
2023-04-20T19:59:09.762Z,18.95
2023-04-20T20:03:25.038Z,17.05
2023-04-20T20:05:30.172Z,18.80
2023-04-20T20:07:38.104Z,17.15
2023-04-20T20:09:45.101Z,16.55
2023-04-20T20:11:53.959Z,18.63
2023-04-20T20:14:02.020Z,18.25
2023-04-20T20:16:14.384Z,17.50
2023-04-20T20:18:20.549Z,17.70
2023-04-20T20:20:27.076Z,16.27
2023-04-20T20:22:36.807Z,18.38
2023-04-20T20:24:42.716Z,17.10
2023-04-20T20:26:49.442Z,17.38
2023-04-20T20:28:54.603Z,18.37
2023-04-20T20:30:59.693Z,17.98
2023-04-20T20:33:07.577Z,18.48
2023-04-20T20:37:41.365Z,18.60
2023-04-20T20:41:52.956Z,18.88
2023-04-20T20:44:00.896Z,18.17
2023-04-20T20:46:06.113Z,18.40
2023-04-20T20:48:14.721Z,18.77
2023-04-20T20:50:20.209Z,18.98
2023-04-20T20:52:25.632Z,19.67
2023-04-20T20:54:35.747Z,18.85
2023-04-20T20:56:41.014Z,19.63
2023-04-20T20:58:48.346Z,19.48
2023-04-20T21:00:53.773Z,19.40
2023-04-20T21:03:00.933Z,19.85
2023-04-20T21:05:11.261Z,19.75
2023-04-20T21:07:17.607Z,19.92
2023-04-20T21:09:29.499Z,19.27
2023-04-20T21:11:37.267Z,18.65
2023-04-20T21:13:42.285Z,20.02
2023-04-20T21:15:47.659Z,19.65
2023-04-20T21:17:52.706Z,19.90
2023-04-20T21:19:57.726Z,18.95
2023-04-20T21:22:10.644Z,19.17
2023-04-20T21:24:16.119Z,19.10
2023-04-20T21:26:23.531Z,20.65
2023-04-20T21:28:31.589Z,18.83
2023-04-20T21:30:38.007Z,19.63
2023-04-20T21:32:43.388Z,19.48
2023-04-20T21:34:49.687Z,20.45
2023-04-20T21:36:54.820Z,20.10
2023-04-20T21:39:02.924Z,19.63
2023-04-20T21:41:08.479Z,18.75
2023-04-20T21:43:15.285Z,20.25
2023-04-20T21:45:22.849Z,20.35
2023-04-20T21:47:28.027Z,21.13
2023-04-20T21:49:33.360Z,20.23
2023-04-20T21:51:49.839Z,20.52
2023-04-20T21:53:57.550Z,19.77
2023-04-20T21:56:05.531Z,20.42
2023-04-20T21:58:11.700Z,19.70
2023-04-20T22:00:18.314Z,20.55
2023-04-20T22:02:27.454Z,20.08
2023-04-20T22:04:33.858Z,21.88
2023-04-20T22:06:39.322Z,19.55
2023-04-20T22:08:50.802Z,20.35
2023-04-20T22:10:55.966Z,20.52
2023-04-20T22:13:03.802Z,16.80
2023-04-20T22:15:15.781Z,20.77
2023-04-20T22:17:21.927Z,19.95
2023-04-20T22:19:27.460Z,19.27
2023-04-20T22:21:33.795Z,19.42
2023-04-20T22:23:39.055Z,20.02
2023-04-20T22:25:44.621Z,19.92
2023-04-20T22:27:49.625Z,19.40
2023-04-20T22:29:57.741Z,20.35
2023-04-20T22:32:03.021Z,20.25
2023-04-20T22:34:08.471Z,20.55
2023-04-20T22:36:13.675Z,19.65
2023-04-20T22:38:21.549Z,19.60
2023-04-20T22:40:27.858Z,19.80
2023-04-20T22:42:38.398Z,19.45
2023-04-20T22:44:43.613Z,21.00
2023-04-20T22:46:53.012Z,20.00
2023-04-20T22:48:58.526Z,19.77
2023-04-20T22:51:05.547Z,19.88
2023-04-20T22:53:10.805Z,19.87
2023-04-20T22:55:25.501Z,19.05
2023-04-20T22:57:30.569Z,19.95
2023-04-20T22:59:35.762Z,19.67
2023-04-20T23:01:45.356Z,18.88
2023-04-20T23:03:53.180Z,18.92
2023-04-20T23:05:59.276Z,18.73
2023-04-20T23:08:06.785Z,20.77
2023-04-20T23:10:15.120Z,20.13
2023-04-20T23:14:34.064Z,19.73
2023-04-20T23:16:40.821Z,19.73
2023-04-20T23:18:46.102Z,19.85
2023-04-20T23:20:53.677Z,20.77
2023-04-20T23:23:00.192Z,19.50
2023-04-20T23:25:05.261Z,20.15
2023-04-20T23:27:12.219Z,19.75
2023-04-20T23:29:17.361Z,20.77
2023-04-20T23:31:25.304Z,20.83
2023-04-20T23:35:37.054Z,19.92
2023-04-20T23:37:45.437Z,20.95
2023-04-20T23:44:06.054Z,19.35
2023-04-20T23:46:12.742Z,20.08
2023-04-20T23:48:18.125Z,19.45
2023-04-20T23:50:23.639Z,20.42
2023-04-20T23:52:29.966Z,19.73
2023-04-20T23:54:37.597Z,20.08
2023-04-20T23:56:42.629Z,20.35
2023-04-20T23:58:49.963Z,19.35
